EST,Max TemperatureF,Mean TemperatureF,Min TemperatureF,Max Dew PointF,MeanDew PointF,Min DewpointF,Max Humidity, Mean Humidity, Min Humidity, Max Sea Level PressureIn, Mean Sea Level PressureIn, Min Sea Level PressureIn, Max VisibilityMiles, Mean VisibilityMiles, Min VisibilityMiles, Max Wind SpeedMPH, Mean Wind SpeedMPH, Max Gust SpeedMPH,PrecipitationIn, CloudCover, Events, WindDirDegrees
2013-12-1,48,38,28,33,29,24,92,76,59,30.12,30.06,29.99,10,9,6,9,3,13,0.00,0,,317
2013-12-2,43,37,30,37,32,27,92,80,67,29.98,29.86,29.78,9,5,2,14,8,18,0.07,7,Rain,77
2013-12-3,49,43,36,48,42,37,100,93,86,29.79,29.76,29.73,4,3,2,14,6,21,0.00,7,,131
2013-12-4,61,51,41,55,49,41,100,92,84,29.78,29.71,29.59,10,4,0,23,8,30,0.00,7,Fog,149
2013-12-5,55,39,23,47,27,15,85,77,68,30.27,30.00,29.70,10,10,8,24,13,31,T,7,,282
2013-12-6,25,20,15,15,14,8,77,72,67,30.51,30.35,30.24,10,10,10,14,9,20,0.00,7,,328
2013-12-7,25,17,9,10,7,4,83,64,45,30.69,30.62,30.53,10,10,10,13,7,17,0.00,0,,350
2013-12-8,27,22,17,27,19,11,100,82,63,30.57,30.20,29.98,10,6,1,20,10,23,0.04,7,Snow,108
2013-12-9,25,20,15,25,17,4,92,79,65,30.24,30.13,29.98,10,8,2,20,13,31,T,6,Snow,264
2013-12-10,26,15,4,11,6,-2,83,67,50,30.35,30.24,30.16,10,10,10,26,10,35,0.00,1,,260
2013-12-11,25,15,4,17,10,-3,92,80,67,30.62,30.42,30.32,10,10,8,20,7,25,T,4,,303
2013-12-12,26,13,0,6,0,-6,79,58,36,30.62,30.48,30.32,10,10,10,17,8,26,0.00,0,,227
2013-12-13,37,26,15,30,20,6,100,74,47,30.30,30.17,30.10,10,6,1,13,5,17,0.19,5,Snow,172
2013-12-14,32,29,26,31,28,23,100,92,84,30.11,29.94,29.79,10,4,0,15,10,21,0.33,8,Fog-Snow,39
2013-12-15,28,20,12,24,14,8,92,83,74,30.16,30.06,29.96,10,8,2,23,12,30,T,7,Snow,275
2013-12-16,23,19,14,22,15,10,100,89,77,30.15,30.09,30.01,10,4,0,13,6,15,0.07,8,Fog-Snow,56
2013-12-17,28,23,17,24,20,14,100,87,74,30.17,30.08,30.01,10,5,1,16,10,22,T,6,Snow,252
2013-12-18,39,25,10,24,14,8,92,68,43,30.26,30.13,29.97,10,10,10,16,8,21,0.00,1,,221
2013-12-19,45,41,37,40,34,24,89,72,54,29.99,29.93,29.84,10,10,8,14,6,20,T,4,Rain,205
2013-12-20,56,47,38,54,48,36,100,90,80,29.83,29.76,29.70,10,7,2,22,7,28,0.14,8,Rain,224
2013-12-21,37,35,32,36,34,31,100,96,92,29.85,29.75,29.48,10,6,2,22,8,29,1.71,8,Rain,359
2013-12-22,36,33,29,35,32,25,100,93,85,30.12,29.76,29.46,10,6,2,20,10,27,0.03,8,Rain,267
2013-12-23,29,19,9,25,15,3,92,80,67,30.50,30.35,30.14,10,10,7,20,13,25,T,7,,279
2013-12-24,19,11,2,10,2,-4,87,77,66,30.62,30.55,30.46,10,10,10,20,8,23,T,2,,246
2013-12-25,29,24,19,28,17,10,92,77,62,30.45,30.29,30.16,10,10,3,16,9,23,T,8,Rain,204
2013-12-26,35,27,18,28,22,13,85,72,59,30.37,30.25,30.14,10,9,2,23,10,34,T,5,Rain,246
2013-12-27,44,36,27,31,27,23,85,72,58,30.37,30.29,30.22,10,10,10,13,7,19,0.00,1,,225
2013-12-28,51,42,33,33,30,28,82,66,50,30.20,30.11,29.94,10,10,10,15,8,21,0.00,0,,215
2013-12-29,39,31,22,30,27,18,100,82,64,30.14,29.94,29.83,10,7,2,22,10,27,T,6,Rain,287
2013-12-30,22,17,12,17,10,6,88,78,67,30.35,30.25,30.15,10,10,4,18,8,23,T,7,Snow,287
2013-12-31,24,18,12,16,12,8,84,73,62,30.41,30.28,30.17,10,9,2,17,8,21,T,6,Snow,284